Dong Fang Chun — BRZL — position and weather

sailwx.info

Track history (hours):
 
Tides and Currents Weather Stations Pressure Air Temp Water Temp Dewpoint Dewpoint Depression Visibility Wind Speed Wind Dir Waves Ship Positions

Dong Fang Chun

Last reported at 2014-Oct-01 13:17 UTC. Time now 2014-Oct-02 00:22 UTC.
Position N 22°29' E 113°55'.

Length 23 m; draft 1.4 m.

Type: High speed craft. MMSI: 412461320.

Date/timePositionNaut miles runAvg speedWind from/ knotsBaromVisibWave heightAir tempDewpointWater temp
2014-Oct-01 13:17N 22°29' E 113°55'1418.4
2014-Oct-01 12:32N 22°19' E 113°44'9 9.3
2014-Oct-01 11:32N 22°14' E 113°35'2019.1
2014-Oct-01 10:28N 22°26' E 113°53'7 8.1
2014-Oct-01 09:33N 22°21' E 113°47'1312.9
2014-Oct-01 08:33N 22°14' E 113°35'2120.4
2014-Oct-01 07:32N 22°26' E 113°53'1412.5
2014-Oct-01 06:27N 22°18' E 113°42'0 0.2
2014-Oct-01 05:32N 22°18' E 113°41'1616.4
2014-Oct-01 04:33N 22°29' E 113°55'2120.9
2014-Oct-01 03:33N 22°15' E 113°37'1110.5
2014-Oct-01 02:33N 22°21' E 113°47'1010.5
2014-Oct-01 01:33N 22°29' E 113°55'1 0.1
2014-Sep-30 14:33N 22°28' E 113°55'2222.4
2014-Sep-30 13:33N 22°14' E 113°35'1312.5
2014-Sep-30 12:31N 22°21' E 113°47'1010.7
2014-Sep-30 11:33N 22°29' E 113°55'1514.0
2014-Sep-30 10:29N 22°19' E 113°43'8 6.7
2014-Sep-30 09:18N 22°15' E 113°35'1317.2
2014-Sep-30 08:33N 22°21' E 113°47'7 7.4
2014-Sep-30 07:33N 22°26' E 113°53'2018.1
2014-Sep-30 06:27N 22°14' E 113°35'1314.9
2014-Sep-30 05:33N 22°21' E 113°48'8 8.3
2014-Sep-30 04:33N 22°27' E 113°54'2221.5
2014-Sep-30 03:33N 22°14' E 113°35'1313.0
2014-Sep-30 02:33N 22°21' E 113°47'8 7.6
2014-Sep-30 01:33N 22°26' E 113°53'2019.7
2014-Sep-30 00:31N 22°14' E 113°35'0 0.0
2014-Sep-29 23:33N 22°14' E 113°35'2 0.2
2014-Sep-29 13:33N 22°16' E 113°37'2020.1
2014-Sep-29 12:32N 22°29' E 113°55'0 0.1
2014-Sep-29 11:33N 22°29' E 113°55'1313.0
2014-Sep-29 10:33N 22°20' E 113°45'9 8.7
2014-Sep-29 09:33N 22°15' E 113°37'2221.6
2014-Sep-29 08:33N 22°29' E 113°55'1514.3
2014-Sep-29 07:28N 22°18' E 113°42'2 1.6
2014-Sep-29 06:33N 22°18' E 113°41'1717.0
2014-Sep-29 05:34N 22°29' E 113°55'2221.8
2014-Sep-29 04:33N 22°15' E 113°36'1514.2
2014-Sep-29 03:30N 22°23' E 113°50'1 0.9
2014-Sep-29 02:33N 22°23' E 113°49'1513.7
2014-Sep-29 01:26N 22°14' E 113°35'1820.7
2014-Sep-29 00:33N 22°25' E 113°52'5 5.0
2014-Sep-28 23:33N 22°29' E 113°55'0 0.0
2014-Sep-28 13:12N 22°29' E 113°55'1319.6
2014-Sep-28 12:32N 22°19' E 113°44'10 8.6
2014-Sep-28 11:24N 22°14' E 113°35'2021.4
2014-Sep-28 10:27N 22°26' E 113°53'1 1.1
2014-Sep-28 09:34N 22°27' E 113°54'2121.2
2014-Sep-28 08:33N 22°14' E 113°35'1312.6
2014-Sep-28 07:32N 22°21' E 113°47'1010.5
2014-Sep-28 06:33N 22°29' E 113°55'1614.0
2014-Sep-28 05:26N 22°18' E 113°42'5 5.2
2014-Sep-28 04:32N 22°16' E 113°38'2020.5
2014-Sep-28 03:33N 22°29' E 113°55'1312.7
2014-Sep-28 02:32N 22°20' E 113°45'7 7.2
2014-Sep-28 01:32N 22°16' E 113°38'2020.7
2014-Sep-28 00:33N 22°29' E 113°55'0 0.1
2014-Sep-27 23:33N 22°29' E 113°55'0 0.0
2014-Sep-27 14:10N 22°29' E 113°55'1 0.8
2014-Sep-27 12:33N 22°27' E 113°55'1 0.7
2014-Sep-27 10:33N 22°29' E 113°55'5 3.4
2014-Sep-27 09:10N 22°24' E 113°54'5 7.8
2014-Sep-27 08:33N 22°29' E 113°55'0 0.0
2014-Sep-27 06:33N 22°29' E 113°55'1514.4
2014-Sep-27 05:29N 22°18' E 113°42'6 6.3
2014-Sep-27 04:33N 22°16' E 113°37'2121.0
2014-Sep-27 03:33N 22°29' E 113°55'1312.6
2014-Sep-27 02:34N 22°20' E 113°45'8 8.3
2014-Sep-27 01:33N 22°16' E 113°37'2120.8
2014-Sep-27 00:33N 22°29' E 113°55'0 0.1
2014-Sep-26 23:33N 22°29' E 113°55'0 0.0
2014-Sep-26 12:33N 22°29' E 113°55'4 3.0
2014-Sep-26 11:05N 22°24' E 113°54'4 8.1
2014-Sep-26 10:32N 22°29' E 113°55'7 5.1
2014-Sep-26 09:08N 22°22' E 113°55'712.6
2014-Sep-26 08:33N 22°29' E 113°55'0 0.1
2014-Sep-26 07:33N 22°29' E 113°55'0 0.0
2014-Sep-26 06:32N 22°29' E 113°55'0 0.0
2014-Sep-26 05:33N 22°29' E 113°55'0 0.0
2014-Sep-26 04:33N 22°29' E 113°55'0 0.0
2014-Sep-26 03:33N 22°29' E 113°55'0 0.0
2014-Sep-26 02:33N 22°29' E 113°55'0 0.0
2014-Sep-26 01:33N 22°29' E 113°55'4 0.3
2014-Sep-25 12:33N 22°25' E 113°54'4 3.8
2014-Sep-25 11:33N 22°29' E 113°55'1413.6
2014-Sep-25 10:33N 22°19' E 113°44'9 9.2
2014-Sep-25 09:32N 22°14' E 113°35'1212.7
2014-Sep-25 08:33N 22°21' E 113°47'8 8.5
2014-Sep-25 07:34N 22°26' E 113°54'2120.8
2014-Sep-25 06:33N 22°14' E 113°35'1212.4
2014-Sep-25 05:34N 22°21' E 113°47'9 8.5
2014-Sep-25 04:33N 22°26' E 113°54'2116.0
2014-Sep-25 03:15N 22°14' E 113°35'1419.4
2014-Sep-25 02:33N 22°22' E 113°48'9 9.3
2014-Sep-25 01:32N 22°29' E 113°55'0 0.0
2014-Sep-24 13:13N 22°29' E 113°55'1519.7
2014-Sep-24 12:28N 22°19' E 113°43'8 8.6
2014-Sep-24 11:31N 22°15' E 113°35'2018.9
2014-Sep-24 10:26N 22°26' E 113°53'5 4.9
2014-Sep-24 09:21N 22°22' E 113°49'14 7.9
2014-Sep-24 07:33N 22°14' E 113°36'2222.3
2014-Sep-24 06:33N 22°29' E 113°55'1514.5
2014-Sep-24 05:32N 22°19' E 113°43'6 6.6
2014-Sep-24 04:33N 22°15' E 113°37'2121.2
2014-Sep-24 03:33N 22°29' E 113°55'1513.8
2014-Sep-24 02:29N 22°19' E 113°43'5 5.9
2014-Sep-24 01:33N 22°16' E 113°38'2020.2
2014-Sep-24 00:34N 22°29' E 113°55'0 0.1
2014-Sep-23 23:33N 22°29' E 113°55'5 0.5
2014-Sep-23 13:33N 22°24' E 113°54'0 0.3
2014-Sep-23 12:28N 22°24' E 113°54'4 2.3
2014-Sep-23 10:33N 22°29' E 113°55'7 4.7
2014-Sep-23 09:07N 22°22' E 113°55'712.2
2014-Sep-23 08:33N 22°29' E 113°55'0 0.1
2014-Sep-23 07:33N 22°29' E 113°55'0 0.0
2014-Sep-23 06:33N 22°29' E 113°55'1514.4
2014-Sep-23 05:30N 22°18' E 113°42'6 6.5
2014-Sep-23 04:33N 22°15' E 113°37'2121.4
2014-Sep-23 03:34N 22°29' E 113°55'1614.4
2014-Sep-23 02:28N 22°18' E 113°42'5 5.5
2014-Sep-23 01:34N 22°16' E 113°37'2120.6
2014-Sep-23 00:34N 22°29' E 113°55'3 0.3
2014-Sep-22 12:33N 22°26' E 113°54'3 3.2
2014-Sep-22 11:33N 22°29' E 113°55'1313.2
2014-Sep-22 10:33N 22°20' E 113°44'10 9.8
2014-Sep-22 09:33N 22°14' E 113°35'0 0.0
2014-Sep-22 08:33N 22°14' E 113°35'1313.0
2014-Sep-22 07:33N 22°22' E 113°47'1010.0
2014-Sep-22 06:33N 22°29' E 113°55'  
Track history (hours):
 
Tides and Currents Weather Stations Pressure Air Temp Water Temp Dewpoint Dewpoint Depression Visibility Wind Speed Wind Dir Waves Ship Positions

Dong Fang Chun

Last reported at 2014-Oct-01 13:17 UTC. Time now 2014-Oct-02 00:22 UTC.
Position N 22°29' E 113°55'.

Length 23 m; draft 1.4 m.

Type: High speed craft. MMSI: 412461320.

Date/timePositionNaut miles runAvg speedWind from/ knotsBaromVisibWave heightAir tempDewpointWater temp
2014-Oct-01 13:17N 22°29' E 113°55'1418.4
2014-Oct-01 12:32N 22°19' E 113°44'9 9.3
2014-Oct-01 11:32N 22°14' E 113°35'2019.1
2014-Oct-01 10:28N 22°26' E 113°53'7 8.1
2014-Oct-01 09:33N 22°21' E 113°47'1312.9
2014-Oct-01 08:33N 22°14' E 113°35'2120.4
2014-Oct-01 07:32N 22°26' E 113°53'1412.5
2014-Oct-01 06:27N 22°18' E 113°42'0 0.2
2014-Oct-01 05:32N 22°18' E 113°41'1616.4
2014-Oct-01 04:33N 22°29' E 113°55'2120.9
2014-Oct-01 03:33N 22°15' E 113°37'1110.5
2014-Oct-01 02:33N 22°21' E 113°47'1010.5
2014-Oct-01 01:33N 22°29' E 113°55'1 0.1
2014-Sep-30 14:33N 22°28' E 113°55'2222.4
2014-Sep-30 13:33N 22°14' E 113°35'1312.5
2014-Sep-30 12:31N 22°21' E 113°47'1010.7
2014-Sep-30 11:33N 22°29' E 113°55'1514.0
2014-Sep-30 10:29N 22°19' E 113°43'8 6.7
2014-Sep-30 09:18N 22°15' E 113°35'1317.2
2014-Sep-30 08:33N 22°21' E 113°47'7 7.4
2014-Sep-30 07:33N 22°26' E 113°53'2018.1
2014-Sep-30 06:27N 22°14' E 113°35'1314.9
2014-Sep-30 05:33N 22°21' E 113°48'8 8.3
2014-Sep-30 04:33N 22°27' E 113°54'2221.5
2014-Sep-30 03:33N 22°14' E 113°35'1313.0
2014-Sep-30 02:33N 22°21' E 113°47'8 7.6
2014-Sep-30 01:33N 22°26' E 113°53'2019.7
2014-Sep-30 00:31N 22°14' E 113°35'0 0.0
2014-Sep-29 23:33N 22°14' E 113°35'2 0.2
2014-Sep-29 13:33N 22°16' E 113°37'2020.1
2014-Sep-29 12:32N 22°29' E 113°55'0 0.1
2014-Sep-29 11:33N 22°29' E 113°55'1313.0
2014-Sep-29 10:33N 22°20' E 113°45'9 8.7
2014-Sep-29 09:33N 22°15' E 113°37'2221.6
2014-Sep-29 08:33N 22°29' E 113°55'1514.3
2014-Sep-29 07:28N 22°18' E 113°42'2 1.6
2014-Sep-29 06:33N 22°18' E 113°41'1717.0
2014-Sep-29 05:34N 22°29' E 113°55'2221.8
2014-Sep-29 04:33N 22°15' E 113°36'1514.2
2014-Sep-29 03:30N 22°23' E 113°50'1 0.9
2014-Sep-29 02:33N 22°23' E 113°49'1513.7
2014-Sep-29 01:26N 22°14' E 113°35'1820.7
2014-Sep-29 00:33N 22°25' E 113°52'5 5.0
2014-Sep-28 23:33N 22°29' E 113°55'0 0.0
2014-Sep-28 13:12N 22°29' E 113°55'1319.6
2014-Sep-28 12:32N 22°19' E 113°44'10 8.6
2014-Sep-28 11:24N 22°14' E 113°35'2021.4
2014-Sep-28 10:27N 22°26' E 113°53'1 1.1
2014-Sep-28 09:34N 22°27' E 113°54'2121.2
2014-Sep-28 08:33N 22°14' E 113°35'1312.6
2014-Sep-28 07:32N 22°21' E 113°47'1010.5
2014-Sep-28 06:33N 22°29' E 113°55'1614.0
2014-Sep-28 05:26N 22°18' E 113°42'5 5.2
2014-Sep-28 04:32N 22°16' E 113°38'2020.5
2014-Sep-28 03:33N 22°29' E 113°55'1312.7
2014-Sep-28 02:32N 22°20' E 113°45'7 7.2
2014-Sep-28 01:32N 22°16' E 113°38'2020.7
2014-Sep-28 00:33N 22°29' E 113°55'0 0.1
2014-Sep-27 23:33N 22°29' E 113°55'0 0.0
2014-Sep-27 14:10N 22°29' E 113°55'1 0.8
2014-Sep-27 12:33N 22°27' E 113°55'1 0.7
2014-Sep-27 10:33N 22°29' E 113°55'5 3.4
2014-Sep-27 09:10N 22°24' E 113°54'5 7.8
2014-Sep-27 08:33N 22°29' E 113°55'0 0.0
2014-Sep-27 06:33N 22°29' E 113°55'1514.4
2014-Sep-27 05:29N 22°18' E 113°42'6 6.3
2014-Sep-27 04:33N 22°16' E 113°37'2121.0
2014-Sep-27 03:33N 22°29' E 113°55'1312.6
2014-Sep-27 02:34N 22°20' E 113°45'8 8.3
2014-Sep-27 01:33N 22°16' E 113°37'2120.8
2014-Sep-27 00:33N 22°29' E 113°55'0 0.1
2014-Sep-26 23:33N 22°29' E 113°55'0 0.0
2014-Sep-26 12:33N 22°29' E 113°55'4 3.0
2014-Sep-26 11:05N 22°24' E 113°54'4 8.1
2014-Sep-26 10:32N 22°29' E 113°55'7 5.1
2014-Sep-26 09:08N 22°22' E 113°55'712.6
2014-Sep-26 08:33N 22°29' E 113°55'0 0.1
2014-Sep-26 07:33N 22°29' E 113°55'0 0.0
2014-Sep-26 06:32N 22°29' E 113°55'0 0.0
2014-Sep-26 05:33N 22°29' E 113°55'0 0.0
2014-Sep-26 04:33N 22°29' E 113°55'0 0.0
2014-Sep-26 03:33N 22°29' E 113°55'0 0.0
2014-Sep-26 02:33N 22°29' E 113°55'0 0.0
2014-Sep-26 01:33N 22°29' E 113°55'4 0.3
2014-Sep-25 12:33N 22°25' E 113°54'4 3.8
2014-Sep-25 11:33N 22°29' E 113°55'1413.6
2014-Sep-25 10:33N 22°19' E 113°44'9 9.2
2014-Sep-25 09:32N 22°14' E 113°35'1212.7
2014-Sep-25 08:33N 22°21' E 113°47'8 8.5
2014-Sep-25 07:34N 22°26' E 113°54'2120.8
2014-Sep-25 06:33N 22°14' E 113°35'1212.4
2014-Sep-25 05:34N 22°21' E 113°47'9 8.5
2014-Sep-25 04:33N 22°26' E 113°54'2116.0
2014-Sep-25 03:15N 22°14' E 113°35'1419.4
2014-Sep-25 02:33N 22°22' E 113°48'9 9.3
2014-Sep-25 01:32N 22°29' E 113°55'0 0.0
2014-Sep-24 13:13N 22°29' E 113°55'1519.7
2014-Sep-24 12:28N 22°19' E 113°43'8 8.6
2014-Sep-24 11:31N 22°15' E 113°35'2018.9
2014-Sep-24 10:26N 22°26' E 113°53'5 4.9
2014-Sep-24 09:21N 22°22' E 113°49'14 7.9
2014-Sep-24 07:33N 22°14' E 113°36'2222.3
2014-Sep-24 06:33N 22°29' E 113°55'1514.5
2014-Sep-24 05:32N 22°19' E 113°43'6 6.6
2014-Sep-24 04:33N 22°15' E 113°37'2121.2
2014-Sep-24 03:33N 22°29' E 113°55'1513.8
2014-Sep-24 02:29N 22°19' E 113°43'5 5.9
2014-Sep-24 01:33N 22°16' E 113°38'2020.2
2014-Sep-24 00:34N 22°29' E 113°55'0 0.1
2014-Sep-23 23:33N 22°29' E 113°55'5 0.5
2014-Sep-23 13:33N 22°24' E 113°54'0 0.3
2014-Sep-23 12:28N 22°24' E 113°54'4 2.3
2014-Sep-23 10:33N 22°29' E 113°55'7 4.7
2014-Sep-23 09:07N 22°22' E 113°55'712.2
2014-Sep-23 08:33N 22°29' E 113°55'0 0.1
2014-Sep-23 07:33N 22°29' E 113°55'0 0.0
2014-Sep-23 06:33N 22°29' E 113°55'1514.4
2014-Sep-23 05:30N 22°18' E 113°42'6 6.5
2014-Sep-23 04:33N 22°15' E 113°37'2121.4
2014-Sep-23 03:34N 22°29' E 113°55'1614.4
2014-Sep-23 02:28N 22°18' E 113°42'5 5.5
2014-Sep-23 01:34N 22°16' E 113°37'2120.6
2014-Sep-23 00:34N 22°29' E 113°55'3 0.3
2014-Sep-22 12:33N 22°26' E 113°54'3 3.2
2014-Sep-22 11:33N 22°29' E 113°55'1313.2
2014-Sep-22 10:33N 22°20' E 113°44'10 9.8
2014-Sep-22 09:33N 22°14' E 113°35'0 0.0
2014-Sep-22 08:33N 22°14' E 113°35'1313.0
2014-Sep-22 07:33N 22°22' E 113°47'1010.0
2014-Sep-22 06:33N 22°29' E 113°55'  

Dump ship's entire track history